Time;durP1;ratioP1;P1;durP2;ratioP2;P2;SDS_P1;SDS_P2;PMS_P1;PMS_P2;Temp;Humidity;BMP_temperature;BMP_pressure;BME280_temperature;BME280_humidity;BME280_pressure;Samples;Min_cycle;Max_cycle;Signal;HPM_P1;HPM_P2
2022/11/19 00:01:05;;;;;;;25.23;11.43;;;;;;;7.72;100.00;100220.34;5096013;28;20067;-59
2022/11/19 00:03:34;;;;;;;23.50;12.35;;;;;;;7.58;100.00;100221.66;5095526;28;20135;-59
2022/11/19 00:06:04;;;;;;;22.48;11.52;;;;;;;7.58;100.00;100218.22;5094921;28;20067;-59
2022/11/19 00:08:31;;;;;;;28.60;12.70;;;;;;;7.59;100.00;100219.88;5094379;28;20044;-59
2022/11/19 00:12:53;;;;;;;23.17;12.15;;;;;;;7.54;100.00;100225.59;5095722;28;20058;-59
2022/11/19 00:14:03;;;;;;;25.17;12.43;;;;;;;7.44;100.00;100208.97;5095295;28;20044;-59
2022/11/19 00:16:30;;;;;;;24.08;11.90;;;;;;;7.42;100.00;100214.41;5095585;28;20044;-59
2022/11/19 00:18:57;;;;;;;21.10;11.93;;;;;;;7.48;100.00;100216.44;5095316;28;20040;-59
2022/11/19 00:21:24;;;;;;;22.60;12.18;;;;;;;7.51;100.00;100215.31;5095243;28;20055;-59
2022/11/19 00:23:53;;;;;;;23.88;12.02;;;;;;;7.63;100.00;100219.44;5095661;28;20059;-59
2022/11/19 00:26:20;;;;;;;23.92;12.18;;;;;;;7.59;100.00;100211.97;5094693;28;20056;-59
2022/11/19 00:28:47;;;;;;;20.30;12.13;;;;;;;7.62;100.00;100209.00;5095127;28;20119;-59
2022/11/19 00:31:15;;;;;;;22.45;11.90;;;;;;;7.55;100.00;100206.16;5094681;28;20067;-59
2022/11/19 00:33:43;;;;;;;21.63;11.40;;;;;;;7.72;100.00;100212.44;5095140;28;20059;-60
2022/11/19 00:36:13;;;;;;;20.80;11.38;;;;;;;7.83;100.00;100214.03;5095041;28;20036;-59
2022/11/19 00:38:41;;;;;;;22.70;11.98;;;;;;;7.59;100.00;100212.78;5095336;28;20047;-59
2022/11/19 00:41:08;;;;;;;23.05;12.18;;;;;;;7.71;100.00;100213.41;5094841;28;20090;-59
2022/11/19 00:43:49;;;;;;;21.77;11.55;;;;;;;7.60;100.00;100216.25;5094840;28;20048;-60
2022/11/19 00:46:31;;;;;;;23.83;12.45;;;;;;;7.48;100.00;100216.44;5095185;28;20105;-59
2022/11/19 00:48:59;;;;;;;24.67;12.40;;;;;;;7.28;100.00;100220.16;5094505;28;20040;-59
2022/11/19 00:51:28;;;;;;;26.00;12.85;;;;;;;7.28;100.00;100218.34;5094896;28;20493;-59
2022/11/19 00:53:55;;;;;;;24.30;12.70;;;;;;;7.42;100.00;100219.69;5094647;28;20040;-59
2022/11/19 00:56:24;;;;;;;27.58;13.68;;;;;;;7.32;100.00;100221.53;5093543;28;20081;-59
2022/11/19 00:58:51;;;;;;;24.25;12.35;;;;;;;7.29;100.00;100229.72;5094497;28;20067;-59
2022/11/19 01:01:21;;;;;;;28.05;13.52;;;;;;;7.29;100.00;100230.56;5094800;28;20398;-59
2022/11/19 01:03:48;;;;;;;25.08;12.68;;;;;;;7.38;100.00;100228.03;5094209;28;20052;-59
2022/11/19 01:06:19;;;;;;;26.70;12.82;;;;;;;7.19;100.00;100235.06;5093963;28;20108;-59
2022/11/19 01:08:47;;;;;;;26.63;12.70;;;;;;;7.08;100.00;100235.22;5094524;28;20040;-59
2022/11/19 01:11:17;;;;;;;24.58;12.88;;;;;;;7.03;100.00;100245.38;5093546;28;20339;-59
2022/11/19 01:13:45;;;;;;;30.35;12.55;;;;;;;7.05;100.00;100241.59;5094736;28;20051;-59
2022/11/19 01:16:14;;;;;;;22.15;11.32;;;;;;;6.91;100.00;100240.28;5094286;28;20165;-59
2022/11/19 01:18:42;;;;;;;24.75;12.25;;;;;;;6.76;100.00;100236.41;5094319;28;20075;-59
2022/11/19 01:21:11;;;;;;;24.25;11.82;;;;;;;6.63;100.00;100246.44;5094251;28;20089;-59
2022/11/19 01:23:39;;;;;;;24.25;11.55;;;;;;;6.46;100.00;100243.53;5094163;28;20047;-59
2022/11/19 01:26:06;;;;;;;23.50;11.27;;;;;;;6.43;100.00;100243.78;5093918;28;20497;-59
2022/11/19 01:28:33;;;;;;;34.80;11.75;;;;;;;6.48;100.00;100246.84;5094023;28;20051;-59
2022/11/19 01:31:07;;;;;;;24.23;10.80;;;;;;;6.36;100.00;100252.41;5093921;28;20048;-59
2022/11/19 01:33:35;;;;;;;23.58;10.82;;;;;;;6.43;100.00;100262.25;5093953;28;20126;-60
2022/11/19 01:36:05;;;;;;;20.52;10.40;;;;;;;6.54;100.00;100253.38;5093875;28;20051;-59
2022/11/19 01:38:32;;;;;;;23.92;10.65;;;;;;;6.66;100.00;100252.25;5094092;28;20118;-59
2022/11/19 01:40:59;;;;;;;21.20;10.25;;;;;;;6.76;100.00;100257.50;5094048;28;20047;-59
2022/11/19 01:43:50;;;;;;;21.33;9.82;;;;;;;6.51;99.78;100261.53;5094203;28;20071;-59
2022/11/19 01:46:19;;;;;;;24.92;10.63;;;;;;;6.39;100.00;100266.13;5093510;28;20036;-59
2022/11/19 01:49:19;;;;;;;18.73;9.27;;;;;;;6.14;100.00;100263.06;5093915;28;20111;-59
2022/11/19 01:51:55;;;;;;;18.33;9.60;;;;;;;6.11;100.00;100268.63;5093717;28;20052;-59
2022/11/19 01:54:27;;;;;;;18.15;9.13;;;;;;;6.01;100.00;100273.03;5092631;28;20047;-59
2022/11/19 01:56:56;;;;;;;24.52;10.38;;;;;;;5.95;100.00;100270.91;5093530;28;20040;-59
2022/11/19 01:59:26;;;;;;;19.55;10.10;;;;;;;6.06;100.00;100268.19;5093538;28;20040;-59
2022/11/19 02:01:54;;;;;;;19.88;10.00;;;;;;;6.16;100.00;100273.44;5093242;28;20087;-60
2022/11/19 02:04:21;;;;;;;23.05;10.52;;;;;;;5.97;100.00;100276.91;5093046;28;20374;-59
2022/11/19 02:06:49;;;;;;;23.98;10.70;;;;;;;5.98;99.63;100277.72;5092560;28;20036;-59
2022/11/19 02:09:15;;;;;;;23.67;9.70;;;;;;;5.97;99.55;100282.16;5093219;28;20047;-59
2022/11/19 02:12:10;;;;;;;22.02;10.82;;;;;;;5.89;99.14;100287.22;5093115;28;20507;-59
2022/11/19 02:15:05;;;;;;;19.23;9.85;;;;;;;5.87;98.55;100289.16;5093172;28;20052;-59
2022/11/19 02:18:11;;;;;;;19.92;9.98;;;;;;;5.91;99.26;100288.78;5093445;28;20081;-59
2022/11/19 02:20:45;;;;;;;22.00;10.13;;;;;;;5.87;99.55;100291.81;5092794;28;20567;-59
2022/11/19 02:26:39;;;;;;;21.63;10.70;;;;;;;5.54;98.79;100299.84;5110814;27;20459;-58
2022/11/19 02:29:28;;;;;;;19.73;10.10;;;;;;;5.68;100.00;100297.84;5111212;28;20397;-59
2022/11/19 02:31:58;;;;;;;20.38;9.68;;;;;;;5.44;98.70;100296.38;5110523;28;20040;-58
2022/11/19 02:34:37;;;;;;;21.63;10.02;;;;;;;5.36;99.24;100302.25;5110962;28;20040;-59
2022/11/19 02:37:12;;;;;;;23.63;10.43;;;;;;;5.22;99.58;100300.00;5110538;28;20479;-58
2022/11/19 02:39:48;;;;;;;26.15;10.27;;;;;;;5.28;100.00;100304.72;5111197;28;20055;-58
2022/11/19 02:42:27;;;;;;;23.67;10.25;;;;;;;5.25;99.93;100307.59;5109571;28;20089;-59
2022/11/19 02:45:32;;;;;;;19.98;9.75;;;;;;;5.22;99.41;100307.03;5110797;28;20055;-59
2022/11/19 02:48:05;;;;;;;19.85;9.88;;;;;;;5.34;98.57;100306.00;5110402;28;20123;-59
2022/11/19 02:50:44;;;;;;;25.40;10.23;;;;;;;5.34;98.42;100298.09;5109083;28;20487;-60
2022/11/19 02:53:10;;;;;;;20.77;9.77;;;;;;;5.32;98.59;100307.94;5110297;28;20036;-59
2022/11/19 02:55:38;;;;;;;20.95;10.25;;;;;;;5.12;98.92;100307.81;5110457;28;20051;-59
2022/11/19 03:04:28;;;;;;;26.13;11.63;;;;;;;5.02;100.00;100304.31;5110408;28;20070;-59
2022/11/19 03:06:35;;;;;;;33.83;13.25;;;;;;;4.90;99.92;100302.69;5109795;28;20048;-59
2022/11/19 03:09:02;;;;;;;31.85;13.15;;;;;;;4.94;99.54;100306.72;5110326;28;20070;-59
2022/11/19 03:11:31;;;;;;;30.45;14.00;;;;;;;4.98;99.70;100308.13;5110203;28;20035;-59
2022/11/19 03:17:16;;;;;;;31.20;14.95;;;;;;;4.87;100.00;100316.91;5109889;28;20048;-59
2022/11/19 03:20:09;;;;;;;35.63;15.57;;;;;;;4.78;99.76;100317.69;5109739;28;20040;-59
2022/11/19 03:22:48;;;;;;;30.67;14.82;;;;;;;4.87;100.00;100324.81;5109839;28;20052;-59
2022/11/19 03:25:21;;;;;;;31.55;15.45;;;;;;;4.81;99.12;100318.25;5109591;28;20051;-59
2022/11/19 03:27:53;;;;;;;32.72;15.05;;;;;;;4.77;99.61;100330.00;5110113;28;20082;-59
2022/11/19 03:30:20;;;;;;;35.60;15.98;;;;;;;4.74;98.07;100330.25;5109578;28;20404;-59
2022/11/19 03:32:58;;;;;;;33.35;15.38;;;;;;;4.60;98.21;100323.50;5109812;28;20101;-59
2022/11/19 03:35:32;;;;;;;32.13;15.80;;;;;;;4.54;98.59;100329.25;5107053;28;20047;-59
2022/11/19 03:38:04;;;;;;;34.42;16.10;;;;;;;4.51;98.62;100332.16;5096371;28;20055;-59
2022/11/19 03:40:33;;;;;;;32.10;14.35;;;;;;;4.48;98.61;100335.00;5096216;28;20044;-59
2022/11/19 03:43:04;;;;;;;34.30;15.82;;;;;;;4.40;98.44;100334.78;5096238;28;20378;-59
2022/11/19 03:45:38;;;;;;;35.15;16.15;;;;;;;4.18;98.33;100335.69;5094553;28;20048;-59
2022/11/19 03:48:05;;;;;;;38.20;15.48;;;;;;;4.27;98.25;100329.69;5096074;28;20046;-59
2022/11/19 03:50:56;;;;;;;40.05;17.02;;;;;;;4.53;99.43;100334.63;5095322;28;20089;-59
2022/11/19 03:53:23;;;;;;;34.20;15.75;;;;;;;4.45;97.34;100326.53;5111853;28;20044;-59
2022/11/19 03:56:12;;;;;;;36.33;16.50;;;;;;;4.34;97.47;100333.50;5095660;28;20040;-59
2022/11/19 03:58:41;;;;;;;40.45;16.25;;;;;;;4.41;98.32;100334.66;5095818;28;20101;-59
2022/11/19 04:01:09;;;;;;;37.72;16.50;;;;;;;4.40;97.89;100340.03;5095226;28;20040;-59
2022/11/19 04:03:36;;;;;;;40.13;17.17;;;;;;;4.40;97.67;100332.16;5096083;28;20549;-59
2022/11/19 04:06:05;;;;;;;37.63;16.05;;;;;;;4.21;97.83;100348.56;5094826;28;20154;-59
2022/11/19 04:08:31;;;;;;;41.00;17.20;;;;;;;4.22;98.20;100350.22;5095481;28;20410;-59
2022/11/19 04:10:58;;;;;;;40.55;18.45;;;;;;;4.39;98.87;100349.72;5095542;28;20428;-59
2022/11/19 04:13:25;;;;;;;43.28;17.67;;;;;;;4.41;97.82;100349.59;5095130;28;20119;-59
2022/11/19 04:15:51;;;;;;;41.30;17.30;;;;;;;4.51;97.63;100349.69;5094448;28;20044;-59
2022/11/19 04:18:18;;;;;;;38.80;16.50;;;;;;;4.64;97.31;100355.63;5095399;28;20555;-59
2022/11/19 04:20:45;;;;;;;38.60;16.65;;;;;;;4.78;96.23;100357.97;5095414;28;20093;-59
2022/11/19 04:23:11;;;;;;;38.53;16.33;;;;;;;4.69;96.44;100363.13;5095155;28;20042;-59
2022/11/19 04:25:40;;;;;;;37.60;17.88;;;;;;;4.70;96.81;100367.41;5093536;28;20045;-59
2022/11/19 04:28:06;;;;;;;40.42;18.30;;;;;;;4.69;95.85;100363.94;5095368;28;20054;-59
2022/11/19 04:30:33;;;;;;;36.85;17.30;;;;;;;4.62;94.23;100365.44;5095118;28;20044;-59
2022/11/19 04:33:00;;;;;;;43.70;18.15;;;;;;;4.47;94.18;100369.28;5095018;28;20505;-59
2022/11/19 04:35:26;;;;;;;44.40;18.55;;;;;;;4.50;94.45;100363.78;5076899;28;20059;-59
2022/11/19 04:37:53;;;;;;;41.78;17.83;;;;;;;4.48;94.47;100363.09;5095163;28;20051;-59
2022/11/19 04:40:20;;;;;;;41.50;19.52;;;;;;;4.47;95.47;100374.53;5095359;28;20482;-59
2022/11/19 04:42:46;;;;;;;42.88;20.05;;;;;;;4.40;94.61;100379.44;5094709;28;20035;-59
2022/11/19 04:45:13;;;;;;;43.28;20.27;;;;;;;4.38;94.59;100386.59;5094802;28;20093;-59
2022/11/19 04:47:39;;;;;;;43.17;19.80;;;;;;;4.57;94.62;100378.09;5093832;28;20044;-59
2022/11/19 04:50:07;;;;;;;41.05;20.15;;;;;;;4.51;94.16;100378.56;5093480;28;20052;-58
2022/11/19 04:52:34;;;;;;;41.00;19.00;;;;;;;4.25;94.04;100386.75;5094507;28;20048;-59
2022/11/19 04:55:05;;;;;;;40.85;19.92;;;;;;;4.15;94.56;100389.28;5094732;28;20068;-58
2022/11/19 04:57:31;;;;;;;45.05;20.27;;;;;;;4.17;94.98;100387.38;5094789;28;20058;-58
2022/11/19 04:59:59;;;;;;;46.38;21.73;;;;;;;4.20;94.54;100391.53;5094572;28;20505;-58
2022/11/19 05:02:25;;;;;;;47.00;21.17;;;;;;;4.11;94.43;100398.34;5094862;28;20058;-58
2022/11/19 05:04:52;;;;;;;42.63;20.15;;;;;;;4.22;95.68;100389.59;5092055;28;20076;-58
2022/11/19 05:07:20;;;;;;;47.10;20.60;;;;;;;4.21;95.34;100391.41;5094317;28;20094;-58
2022/11/19 05:09:46;;;;;;;44.25;20.63;;;;;;;4.04;95.49;100395.38;5094206;28;20119;-58
2022/11/19 05:12:13;;;;;;;50.50;22.48;;;;;;;4.07;95.50;100402.16;5094580;28;20044;-58
2022/11/19 05:14:39;;;;;;;43.22;20.90;;;;;;;4.10;95.40;100406.34;5093250;28;20486;-59
2022/11/19 05:17:06;;;;;;;54.20;22.40;;;;;;;4.14;96.58;100407.78;5094209;28;20047;-58
2022/11/19 05:19:33;;;;;;;43.65;21.27;;;;;;;4.19;96.02;100416.13;5093879;28;20527;-59
2022/11/19 05:21:59;;;;;;;43.42;20.80;;;;;;;4.17;95.22;100421.50;5094221;28;20040;-58
2022/11/19 05:24:26;;;;;;;45.42;20.73;;;;;;;4.11;95.00;100416.75;5093981;28;20126;-58
2022/11/19 05:26:53;;;;;;;47.38;20.13;;;;;;;4.24;96.19;100419.22;5093856;28;20416;-58
2022/11/19 05:29:19;;;;;;;43.97;19.90;;;;;;;4.11;95.53;100416.75;5093040;28;20074;-58
2022/11/19 05:31:46;;;;;;;47.95;20.77;;;;;;;4.04;94.64;100421.63;5094022;28;20048;-58
2022/11/19 05:34:13;;;;;;;45.42;19.58;;;;;;;3.97;95.06;100419.59;5092691;28;20546;-58
2022/11/19 05:36:39;;;;;;;45.63;20.80;;;;;;;4.02;96.33;100426.16;5094033;28;20043;-58
2022/11/19 05:39:06;;;;;;;43.45;19.80;;;;;;;4.08;95.54;100422.22;5093820;28;20551;-59
2022/11/19 05:41:33;;;;;;;47.63;21.05;;;;;;;4.06;95.50;100428.53;5075979;28;20500;-59
2022/11/19 05:43:59;;;;;;;42.78;20.52;;;;;;;4.17;96.35;100429.38;5093796;28;20091;-59
2022/11/19 05:46:26;;;;;;;45.67;19.75;;;;;;;4.08;94.71;100422.22;5093915;28;20389;-58
2022/11/19 05:48:53;;;;;;;42.35;20.70;;;;;;;4.11;95.59;100427.25;5093670;28;20040;-58
2022/11/19 05:51:20;;;;;;;45.38;20.60;;;;;;;4.03;96.00;100427.81;5092169;28;20098;-59
2022/11/19 05:53:47;;;;;;;45.47;20.23;;;;;;;4.03;96.09;100440.09;5093841;28;20036;-58
2022/11/19 05:56:14;;;;;;;48.60;20.92;;;;;;;3.97;95.88;100443.22;5093245;28;20619;-59
2022/11/19 05:58:40;;;;;;;48.20;20.95;;;;;;;4.15;96.21;100439.16;5093590;28;20055;-59
2022/11/19 06:01:07;;;;;;;42.10;20.70;;;;;;;4.27;95.96;100439.97;5092271;28;20047;-59
2022/11/19 06:03:34;;;;;;;46.38;20.83;;;;;;;4.34;95.66;100442.97;5093606;28;20044;-59
2022/11/19 06:06:01;;;;;;;41.83;21.20;;;;;;;4.38;94.26;100440.00;5091245;28;20037;-58
2022/11/19 06:08:28;;;;;;;50.25;21.02;;;;;;;4.51;94.18;100446.88;5093155;28;20409;-58
2022/11/19 06:10:55;;;;;;;42.08;20.70;;;;;;;4.28;93.91;100446.91;5093499;28;20493;-58
2022/11/19 06:13:21;;;;;;;42.58;20.08;;;;;;;4.26;95.56;100445.34;5093383;28;20081;-59
2022/11/19 06:15:48;;;;;;;43.65;20.98;;;;;;;4.20;93.53;100452.78;5093133;28;20139;-58
2022/11/19 06:18:15;;;;;;;40.42;21.33;;;;;;;4.16;93.52;100464.44;5093341;28;20065;-58
2022/11/19 06:20:42;;;;;;;40.17;20.00;;;;;;;4.05;93.96;100464.44;5092107;28;20218;-59
2022/11/19 06:23:08;;;;;;;44.17;21.02;;;;;;;3.98;94.22;100466.72;5093465;28;20510;-58
2022/11/19 06:25:35;;;;;;;45.55;21.92;;;;;;;3.90;93.97;100471.72;5092589;28;20040;-58
2022/11/19 06:28:02;;;;;;;43.45;21.15;;;;;;;3.92;95.07;100469.81;5093436;28;20155;-58
2022/11/19 06:30:28;;;;;;;49.17;21.98;;;;;;;3.89;95.87;100469.22;5091782;28;20059;-58
2022/11/19 06:32:55;;;;;;;41.08;20.67;;;;;;;3.80;95.87;100475.97;5093249;28;20051;-58
2022/11/19 06:35:22;;;;;;;43.60;21.05;;;;;;;3.85;95.25;100477.31;5092730;28;20375;-58
2022/11/19 06:37:48;;;;;;;44.45;21.80;;;;;;;3.90;95.07;100486.63;5093318;28;20048;-58
2022/11/19 06:40:15;;;;;;;47.88;22.55;;;;;;;3.94;95.00;100485.44;5093289;28;20048;-58
2022/11/19 06:42:42;;;;;;;43.50;21.17;;;;;;;4.05;94.57;100495.94;5093174;28;20051;-58
2022/11/19 06:45:12;;;;;;;44.10;22.20;;;;;;;4.04;93.86;100497.75;5089659;28;20505;-59
2022/11/19 06:47:40;;;;;;;46.65;22.60;;;;;;;4.17;93.71;100507.31;5052515;28;20045;-59
2022/11/19 06:50:09;;;;;;;46.17;21.95;;;;;;;4.10;93.53;100503.47;5052500;28;20514;-58
2022/11/19 06:52:36;;;;;;;41.33;21.40;;;;;;;4.07;93.51;100507.16;5051468;28;20056;-58
2022/11/19 06:55:03;;;;;;;42.38;21.20;;;;;;;4.24;92.45;100508.50;5052595;28;20478;-58
2022/11/19 06:57:30;;;;;;;41.90;21.42;;;;;;;4.32;92.54;100511.34;5089348;28;20047;-58
2022/11/19 06:59:57;;;;;;;42.67;21.88;;;;;;;4.13;92.32;100511.97;5091860;28;20121;-58
2022/11/19 07:02:24;;;;;;;47.47;22.83;;;;;;;4.08;91.57;100513.28;5057229;28;20482;-58
2022/11/19 07:04:51;;;;;;;42.10;21.95;;;;;;;3.99;91.63;100522.69;5010670;28;20075;-58
2022/11/19 07:07:17;;;;;;;41.65;21.35;;;;;;;3.88;92.53;100530.53;5078999;28;20103;-58
2022/11/19 07:09:45;;;;;;;43.35;21.27;;;;;;;3.88;92.15;100534.00;5052085;28;20048;-58
2022/11/19 07:12:12;;;;;;;45.55;21.77;;;;;;;3.84;92.02;100535.19;5070135;28;20045;-60
2022/11/19 07:14:38;;;;;;;43.10;21.52;;;;;;;3.81;91.92;100538.84;5056367;28;20041;-58
2022/11/19 07:17:05;;;;;;;48.13;23.85;;;;;;;3.95;91.54;100545.69;5055195;28;20037;-58
2022/11/19 07:19:32;;;;;;;42.20;22.20;;;;;;;3.92;91.96;100555.59;5056508;28;20055;-58
2022/11/19 07:21:58;;;;;;;44.53;21.60;;;;;;;3.79;92.24;100556.50;5055833;28;20090;-59
2022/11/19 07:24:25;;;;;;;50.28;22.13;;;;;;;3.77;91.89;100561.03;5056097;28;20056;-59
2022/11/19 07:26:53;;;;;;;51.53;23.23;;;;;;;3.62;91.02;100549.91;5080748;28;20094;-59
2022/11/19 07:29:20;;;;;;;48.67;22.02;;;;;;;3.49;92.45;100559.59;5096565;28;20048;-58
2022/11/19 07:31:49;;;;;;;47.55;23.13;;;;;;;3.68;93.12;100553.84;5095151;28;20048;-58
2022/11/19 07:34:16;;;;;;;45.70;22.90;;;;;;;3.57;91.31;100553.81;5096111;28;20040;-58
2022/11/19 07:36:44;;;;;;;53.10;23.70;;;;;;;3.77;92.30;100558.41;5095934;28;20090;-58
2022/11/19 07:39:11;;;;;;;50.20;23.90;;;;;;;3.76;92.32;100564.59;5094517;28;20044;-59
2022/11/19 07:44:25;;;;;;;50.92;23.13;;;;;;;3.79;90.21;100561.75;5095376;28;20043;-58
2022/11/19 07:46:52;;;;;;;46.92;22.20;;;;;;;3.67;90.47;100567.91;5096074;28;20044;-58
2022/11/19 07:49:19;;;;;;;47.90;22.65;;;;;;;3.62;90.03;100580.53;5095877;28;20047;-58
2022/11/19 07:51:46;;;;;;;52.80;23.88;;;;;;;3.73;91.24;100577.97;5095563;28;20058;-58
2022/11/19 07:54:13;;;;;;;53.72;23.85;;;;;;;3.72;90.65;100583.31;5095849;28;20603;-58
2022/11/19 07:56:40;;;;;;;64.13;24.70;;;;;;;3.88;92.56;100577.78;5095780;28;20036;-58
2022/11/19 07:59:07;;;;;;;47.45;24.90;;;;;;;3.72;91.29;100584.16;5094517;28;20032;-59
2022/11/19 08:01:34;;;;;;;53.92;24.60;;;;;;;3.73;91.04;100585.84;5095416;28;20048;-59
2022/11/19 08:04:01;;;;;;;46.97;23.55;;;;;;;3.80;91.04;100594.94;5045258;28;20036;-59
2022/11/19 08:06:29;;;;;;;52.13;24.80;;;;;;;3.88;90.17;100591.72;5074074;28;20029;-59
2022/11/19 08:08:55;;;;;;;56.38;25.13;;;;;;;3.88;89.74;100593.53;5075188;28;20406;-58
2022/11/19 08:11:23;;;;;;;49.30;23.67;;;;;;;3.92;89.60;100602.84;5074929;28;20138;-58
2022/11/19 08:13:51;;;;;;;54.45;25.52;;;;;;;3.84;89.75;100600.78;5075162;28;20044;-58
2022/11/19 08:19:08;;;;;;;56.83;26.55;;;;;;;3.93;89.51;100607.97;5075036;28;20044;-58
2022/11/19 08:21:38;;;;;;;55.13;25.58;;;;;;;3.80;89.17;100613.28;5074774;28;20454;-58
2022/11/19 08:24:07;;;;;;;51.78;24.15;;;;;;;3.82;89.88;100614.00;5074556;28;20393;-58
2022/11/19 08:26:33;;;;;;;53.47;26.50;;;;;;;3.87;89.52;100621.53;5085571;28;20047;-58
2022/11/19 08:29:00;;;;;;;53.47;24.25;;;;;;;3.68;89.39;100621.22;5095325;28;20052;-59
2022/11/19 08:31:27;;;;;;;48.28;24.65;;;;;;;3.65;90.07;100625.72;5095130;28;20425;-58
2022/11/19 08:33:54;;;;;;;52.78;25.98;;;;;;;3.82;90.63;100627.13;5094772;28;20558;-58
2022/11/19 08:36:21;;;;;;;54.70;25.73;;;;;;;3.88;90.08;100623.22;5094127;28;20040;-58
2022/11/19 08:38:48;;;;;;;53.25;24.58;;;;;;;3.83;89.95;100620.91;5095096;28;20048;-58
2022/11/19 08:44:02;;;;;;;54.55;26.30;;;;;;;3.85;89.84;100632.13;5094879;28;20075;-58
2022/11/19 08:46:28;;;;;;;49.88;23.85;;;;;;;3.84;89.04;100634.91;5094616;28;20044;-60
2022/11/19 08:48:55;;;;;;;50.42;24.10;;;;;;;4.02;89.22;100623.03;5094638;28;20048;-59
2022/11/19 08:51:22;;;;;;;53.17;25.90;;;;;;;4.16;88.88;100626.41;5094425;28;20378;-59
2022/11/19 08:53:51;;;;;;;53.95;23.58;;;;;;;4.03;88.96;100634.34;5094740;28;20123;-60
2022/11/19 08:56:18;;;;;;;51.05;24.38;;;;;;;4.18;88.40;100635.00;5094372;28;20093;-58
2022/11/19 08:58:46;;;;;;;55.45;24.45;;;;;;;4.32;88.82;100633.97;5094682;28;20047;-59
2022/11/19 09:01:15;;;;;;;49.60;23.40;;;;;;;4.42;87.80;100640.19;5094681;28;20040;-63
2022/11/19 09:03:42;;;;;;;51.88;24.85;;;;;;;4.47;86.53;100640.66;4985933;28;20048;-59
2022/11/19 09:06:09;;;;;;;47.25;23.40;;;;;;;4.19;87.00;100645.38;5093104;28;20047;-59
2022/11/19 09:08:37;;;;;;;49.38;23.85;;;;;;;4.15;88.15;100646.56;5094321;28;20127;-59
2022/11/19 09:11:11;;;;;;;45.55;23.88;;;;;;;4.19;88.86;100637.50;5094473;28;20121;-59
2022/11/19 09:13:40;;;;;;;51.83;25.25;;;;;;;4.29;88.90;100642.91;5094750;28;20047;-59
2022/11/19 09:16:07;;;;;;;50.60;24.00;;;;;;;4.34;88.32;100647.81;5094320;28;20044;-59
2022/11/19 09:18:37;;;;;;;52.63;24.10;;;;;;;4.17;87.44;100655.16;5094376;28;20165;-59
2022/11/19 09:21:06;;;;;;;51.85;24.80;;;;;;;4.12;89.05;100662.56;5093873;28;20080;-59
2022/11/19 09:23:33;;;;;;;53.15;24.17;;;;;;;4.29;88.91;100657.81;5093930;28;20047;-59
2022/11/19 09:26:11;;;;;;;45.70;22.33;;;;;;;4.40;87.53;100665.72;5093657;28;20050;-59
2022/11/19 09:28:38;;;;;;;48.03;22.05;;;;;;;4.29;86.09;100663.91;5092910;28;20063;-58
2022/11/19 09:31:07;;;;;;;46.92;23.80;;;;;;;4.32;86.55;100676.00;5075264;28;20044;-58
2022/11/19 09:33:37;;;;;;;47.47;23.52;;;;;;;4.35;87.55;100679.22;5067344;28;20125;-59
2022/11/19 09:36:04;;;;;;;45.30;23.00;;;;;;;4.35;86.32;100671.34;5053954;28;20581;-58
2022/11/19 09:38:33;;;;;;;42.95;22.42;;;;;;;4.29;85.79;100677.03;5035833;28;20506;-59
2022/11/19 09:41:42;;;;;;;46.10;23.05;;;;;;;4.16;86.18;100671.88;5036210;28;20047;-59
2022/11/19 09:44:33;;;;;;;43.75;20.48;;;;;;;4.17;86.61;100691.09;5052094;28;20045;-59
2022/11/19 09:47:14;;;;;;;44.58;21.23;;;;;;;4.18;86.41;100690.13;5052348;28;20125;-60
2022/11/19 09:50:04;;;;;;;49.10;22.52;;;;;;;4.18;85.67;100685.75;5052963;28;20084;-59
2022/11/19 09:52:41;;;;;;;44.95;21.75;;;;;;;4.06;86.22;100686.66;5051774;28;20051;-59
2022/11/19 09:55:16;;;;;;;47.05;21.80;;;;;;;4.10;86.25;100687.25;5052769;28;20048;-59
2022/11/19 09:57:55;;;;;;;46.35;21.83;;;;;;;4.04;86.39;100693.81;5053569;28;20044;-59
2022/11/19 10:00:25;;;;;;;46.00;21.73;;;;;;;4.09;85.44;100701.31;5052817;28;20041;-59
2022/11/19 10:02:53;;;;;;;41.20;20.75;;;;;;;3.98;85.00;100689.84;4928015;28;21014;-58
2022/11/19 10:05:45;;;;;;;45.97;21.95;;;;;;;4.03;84.68;100697.38;5052136;28;20048;-59
2022/11/19 10:08:27;;;;;;;;;;;;;;;4.12;84.55;100699.31;5053414;28;20380;-59
2022/11/19 10:11:27;;;;;;;50.27;20.57;;;;;;;4.05;85.51;100708.59;5053212;28;20480;-59
2022/11/19 10:14:07;;;;;;;55.60;21.65;;;;;;;4.06;85.24;100715.53;5052933;28;20124;-59
2022/11/19 10:19:29;;;;;;;47.58;21.75;;;;;;;3.83;84.52;100712.78;5110777;27;20391;-59
2022/11/19 10:24:41;;;;;;;45.47;21.98;;;;;;;4.01;85.27;100717.63;5110646;27;20125;-58
2022/11/19 10:27:28;;;;;;;44.28;20.75;;;;;;;4.09;84.60;100720.53;5109854;28;20047;-60
2022/11/19 10:29:59;;;;;;;41.58;19.83;;;;;;;3.79;85.24;100729.69;5110994;28;20489;-59
2022/11/19 10:32:39;;;;;;;47.72;21.45;;;;;;;4.04;84.54;100725.31;5080438;28;20072;-59
2022/11/19 10:35:15;;;;;;;49.80;22.50;;;;;;;4.21;84.73;100735.38;5110529;28;20599;-59
2022/11/19 10:38:00;;;;;;;45.92;20.58;;;;;;;4.18;83.71;100734.78;5110682;28;20040;-59
2022/11/19 10:40:35;;;;;;;47.25;21.85;;;;;;;3.91;84.36;100741.09;5110567;28;20090;-59
2022/11/19 10:43:24;;;;;;;44.22;21.23;;;;;;;3.92;84.29;100732.28;5109139;28;20115;-59
2022/11/19 10:45:51;;;;;;;47.33;21.25;;;;;;;4.08;84.09;100734.63;5126084;28;20131;-58
2022/11/19 10:48:22;;;;;;;48.83;21.70;;;;;;;4.20;85.38;100720.59;5110355;27;20046;-58
2022/11/19 10:50:50;;;;;;;39.38;19.33;;;;;;;4.20;83.57;100725.84;5110062;28;20039;-59
2022/11/19 10:53:31;;;;;;;44.97;20.95;;;;;;;4.26;83.65;100718.44;5110200;28;20040;-59
2022/11/19 10:56:02;;;;;;;43.67;19.98;;;;;;;4.18;84.38;100722.50;5110420;28;20101;-58
2022/11/19 10:58:41;;;;;;;43.83;20.63;;;;;;;4.25;84.98;100716.78;5108909;28;20509;-60
2022/11/19 11:01:40;;;;;;;46.35;21.38;;;;;;;4.42;84.43;100717.22;5109325;28;20047;-60
2022/11/19 11:04:15;;;;;;;46.10;21.33;;;;;;;4.79;84.35;100710.97;4985967;28;20040;-59
2022/11/19 11:07:00;;;;;;;44.38;21.42;;;;;;;4.83;82.56;100711.56;5109696;28;20036;-61
2022/11/19 11:09:42;;;;;;;42.42;21.70;;;;;;;5.19;81.29;100707.88;5109962;28;20055;-58
2022/11/19 11:15:21;;;;;;;43.28;21.42;;;;;;;5.39;80.45;100715.03;5109713;28;20512;-59
2022/11/19 11:18:01;;;;;;;45.00;21.10;;;;;;;5.34;78.42;100711.91;5110284;28;20046;-59
2022/11/19 11:20:30;;;;;;;45.72;22.65;;;;;;;5.36;79.43;100707.38;5110037;28;20063;-59
2022/11/19 11:23:19;;;;;;;46.17;22.27;;;;;;;4.96;78.26;100709.66;5109228;28;20048;-59
2022/11/19 11:26:06;;;;;;;42.55;21.17;;;;;;;4.88;79.69;100712.88;5109249;28;20617;-59
2022/11/19 11:28:33;;;;;;;41.53;21.02;;;;;;;5.18;80.37;100722.84;5109751;28;20050;-59
2022/11/19 11:31:04;;;;;;;45.47;21.75;;;;;;;5.34;79.65;100717.19;5109744;28;20047;-59
2022/11/19 11:33:52;;;;;;;40.60;21.35;;;;;;;5.42;79.45;100713.97;5109569;28;20039;-59
2022/11/19 11:36:23;;;;;;;45.95;21.45;;;;;;;5.55;78.60;100714.66;5095508;28;20062;-59
2022/11/19 11:38:53;;;;;;;42.28;20.92;;;;;;;5.46;78.89;100709.31;5095821;28;20051;-59
2022/11/19 11:41:23;;;;;;;41.45;21.30;;;;;;;5.33;79.33;100704.16;5095972;28;20054;-59
2022/11/19 11:46:52;;;;;;;38.75;20.67;;;;;;;5.54;79.07;100705.06;5110827;27;20379;-58
2022/11/19 11:49:41;;;;;;;40.22;19.80;;;;;;;5.47;78.87;100708.31;5110864;28;20124;-58
2022/11/19 11:54:59;;;;;;;39.05;20.05;;;;;;;5.29;78.24;100707.97;5110662;27;20051;-58
2022/11/19 11:57:29;;;;;;;42.10;19.80;;;;;;;4.86;79.85;100708.69;5110778;28;20043;-58
2022/11/19 11:59:56;;;;;;;38.95;18.73;;;;;;;4.57;80.59;100706.50;5110971;28;20051;-59
2022/11/19 12:02:33;;;;;;;49.15;20.13;;;;;;;4.39;81.44;100712.19;5110833;28;20043;-58
2022/11/19 12:05:05;;;;;;;38.92;19.90;;;;;;;4.30;82.59;100712.03;5018905;28;20036;-58
2022/11/19 12:08:03;;;;;;;39.95;19.73;;;;;;;4.25;83.25;100707.13;5109370;28;20039;-58
2022/11/19 12:11:01;;;;;;;42.60;19.77;;;;;;;4.33;83.76;100709.16;5109260;28;20093;-58